createdAt,value
2023-06-29T00:00:13.109Z,77.33
2023-06-29T00:01:11.172Z,77.55
2023-06-29T00:02:11.083Z,77.61
2023-06-29T00:03:11.145Z,77.55
2023-06-29T00:04:11.101Z,77.44
2023-06-29T00:05:11.086Z,77.39
2023-06-29T00:06:11.083Z,77.39
2023-06-29T00:07:11.152Z,77.34
2023-06-29T00:08:11.087Z,77.40
2023-06-29T00:09:11.083Z,77.32
2023-06-29T00:10:11.092Z,77.37
2023-06-29T00:11:12.096Z,77.32
2023-06-29T00:12:11.094Z,77.42
2023-06-29T00:13:11.089Z,77.55
2023-06-29T00:14:11.091Z,77.59
2023-06-29T00:15:11.097Z,77.58
2023-06-29T00:16:11.121Z,77.52
2023-06-29T00:17:11.087Z,77.59
2023-06-29T00:18:11.087Z,77.60
2023-06-29T00:19:12.084Z,77.69
2023-06-29T00:20:14.241Z,77.59
2023-06-29T00:21:11.088Z,77.74
2023-06-29T00:22:11.085Z,77.54
2023-06-29T00:23:11.096Z,77.53
2023-06-29T00:24:11.105Z,77.49
2023-06-29T00:25:12.093Z,77.61
2023-06-29T00:26:11.092Z,77.44
2023-06-29T00:27:11.087Z,77.44
2023-06-29T00:28:11.096Z,77.40
2023-06-29T00:29:11.094Z,77.30
2023-06-29T00:30:11.098Z,77.43
2023-06-29T00:31:11.117Z,77.42
2023-06-29T00:32:11.108Z,77.34
2023-06-29T00:33:11.088Z,77.40
2023-06-29T00:34:11.085Z,77.48
2023-06-29T00:35:11.095Z,77.43
2023-06-29T00:36:11.093Z,77.24
2023-06-29T00:37:11.086Z,77.30
2023-06-29T00:38:11.088Z,77.30
2023-06-29T00:39:11.091Z,77.34
2023-06-29T00:40:11.084Z,77.39
2023-06-29T00:41:11.094Z,77.58
2023-06-29T00:42:11.087Z,77.75
2023-06-29T00:43:11.091Z,77.59
2023-06-29T00:44:11.119Z,77.53
2023-06-29T00:45:11.105Z,77.40
2023-06-29T00:46:12.129Z,77.44
2023-06-29T00:47:11.090Z,77.56
2023-06-29T00:48:11.153Z,77.74
2023-06-29T00:49:11.085Z,77.59
2023-06-29T00:50:11.091Z,77.48
2023-06-29T00:51:11.090Z,77.63
2023-06-29T00:52:11.101Z,77.69
2023-06-29T00:53:11.100Z,77.62
2023-06-29T00:54:11.090Z,77.70
2023-06-29T00:55:11.087Z,77.78
2023-06-29T00:56:11.088Z,77.85
2023-06-29T00:57:13.092Z,78.01
2023-06-29T00:58:11.089Z,77.93
2023-06-29T00:59:11.090Z,77.89
2023-06-29T01:00:11.096Z,77.84
2023-06-29T01:01:11.125Z,77.72
2023-06-29T01:02:11.064Z,77.86
2023-06-29T01:03:11.116Z,77.91
2023-06-29T01:04:11.062Z,77.92
2023-06-29T01:05:11.134Z,77.92
2023-06-29T01:06:14.065Z,77.96
2023-06-29T01:07:20.113Z,77.96
2023-06-29T01:08:21.064Z,78.16
2023-06-29T01:09:11.073Z,78.25
2023-06-29T01:10:13.068Z,78.29
2023-06-29T01:11:11.067Z,78.36
2023-06-29T01:12:11.077Z,78.33
2023-06-29T01:13:11.067Z,78.40
2023-06-29T01:14:12.076Z,78.45
2023-06-29T01:15:12.094Z,78.56
2023-06-29T01:16:11.097Z,78.68
2023-06-29T01:17:12.069Z,78.76
2023-06-29T01:18:12.100Z,79.03
2023-06-29T01:19:14.066Z,79.05
2023-06-29T01:20:11.072Z,78.98
2023-06-29T01:21:11.073Z,79.08
2023-06-29T01:22:21.111Z,79.02
2023-06-29T01:23:15.066Z,78.99
2023-06-29T01:24:12.069Z,79.04
2023-06-29T01:25:11.072Z,79.04
2023-06-29T01:26:12.065Z,78.94
2023-06-29T01:27:11.068Z,78.78
2023-06-29T01:28:11.098Z,79.10
2023-06-29T01:29:11.070Z,78.93
2023-06-29T01:30:11.112Z,78.98
2023-06-29T01:31:11.072Z,78.92
2023-06-29T01:32:12.066Z,78.86
2023-06-29T01:33:11.078Z,78.96
2023-06-29T01:34:11.072Z,78.96
2023-06-29T01:35:12.076Z,78.77
2023-06-29T01:36:18.087Z,78.82
2023-06-29T01:37:18.070Z,78.96
2023-06-29T01:38:19.076Z,78.70
2023-06-29T01:39:16.077Z,78.52
2023-06-29T01:40:14.075Z,78.52
2023-06-29T01:41:12.072Z,78.60
2023-06-29T01:42:11.098Z,78.53
2023-06-29T01:43:11.068Z,78.41
2023-06-29T01:44:12.088Z,78.50
2023-06-29T01:45:11.086Z,78.57
2023-06-29T01:46:11.203Z,78.46
2023-06-29T01:47:11.084Z,78.31
2023-06-29T01:48:11.086Z,78.34
2023-06-29T01:49:11.132Z,78.47
2023-06-29T01:50:11.079Z,78.33
2023-06-29T01:51:11.068Z,78.20
2023-06-29T01:52:11.068Z,78.33
2023-06-29T01:53:11.069Z,78.17
2023-06-29T01:54:11.075Z,78.12
2023-06-29T01:55:11.076Z,78.11
2023-06-29T01:56:11.068Z,77.97
2023-06-29T01:57:11.083Z,77.93
2023-06-29T01:58:11.075Z,78.01
2023-06-29T01:59:11.069Z,77.97
2023-06-29T02:00:11.097Z,78.01
2023-06-29T02:01:11.142Z,77.98
2023-06-29T02:02:11.076Z,77.92
2023-06-29T02:03:11.238Z,77.82
2023-06-29T02:04:11.073Z,77.98
2023-06-29T02:05:11.072Z,77.97
2023-06-29T02:06:11.067Z,78.03
2023-06-29T02:07:11.108Z,77.92
2023-06-29T02:08:11.072Z,77.87
2023-06-29T02:09:11.111Z,77.85
2023-06-29T02:10:11.076Z,77.85
2023-06-29T02:11:11.079Z,77.71
2023-06-29T02:12:11.074Z,77.75
2023-06-29T02:13:11.087Z,77.64
2023-06-29T02:14:11.073Z,77.56
2023-06-29T02:15:11.070Z,77.56
2023-06-29T02:16:11.129Z,77.72
2023-06-29T02:17:11.075Z,78.09
2023-06-29T02:18:11.079Z,78.10
2023-06-29T02:19:11.085Z,78.01
2023-06-29T02:20:11.076Z,78.14
2023-06-29T02:21:11.082Z,78.28
2023-06-29T02:22:11.087Z,78.15
2023-06-29T02:23:11.093Z,78.21
2023-06-29T02:24:11.077Z,78.04
2023-06-29T02:25:12.092Z,78.31
2023-06-29T02:26:11.082Z,78.34
2023-06-29T02:27:11.091Z,78.40
2023-06-29T02:28:11.091Z,78.43
2023-06-29T02:29:11.088Z,78.55
2023-06-29T02:30:11.077Z,78.45
2023-06-29T02:31:11.206Z,78.33
2023-06-29T02:32:11.074Z,78.63
2023-06-29T02:33:11.079Z,78.67
2023-06-29T02:34:11.084Z,78.59
2023-06-29T02:35:11.076Z,78.68
2023-06-29T02:36:11.080Z,78.72
2023-06-29T02:37:11.083Z,78.88
2023-06-29T02:38:11.074Z,78.72
2023-06-29T02:39:11.086Z,78.52
2023-06-29T02:40:11.094Z,78.52
2023-06-29T02:41:11.128Z,78.69
2023-06-29T02:42:11.091Z,78.51
2023-06-29T02:43:11.090Z,78.68
2023-06-29T02:44:11.076Z,78.48
2023-06-29T02:45:11.078Z,78.57
2023-06-29T02:46:11.124Z,78.57
2023-06-29T02:47:11.078Z,78.43
2023-06-29T02:48:11.080Z,78.29
2023-06-29T02:49:11.086Z,78.53
2023-06-29T02:50:11.091Z,78.51
2023-06-29T02:51:11.106Z,78.51
2023-06-29T02:52:11.111Z,78.61
2023-06-29T02:53:11.082Z,78.64
2023-06-29T02:54:11.076Z,78.54
2023-06-29T02:55:11.093Z,78.52
2023-06-29T02:56:11.081Z,78.74
2023-06-29T02:57:11.095Z,78.65
2023-06-29T02:58:11.085Z,78.57
2023-06-29T02:59:11.094Z,78.41
2023-06-29T03:00:11.077Z,78.49
2023-06-29T03:01:11.156Z,78.48
2023-06-29T03:02:11.110Z,78.52
2023-06-29T03:03:11.269Z,78.51
2023-06-29T03:04:11.094Z,78.54
2023-06-29T03:05:11.089Z,78.94
2023-06-29T03:06:11.089Z,78.69
2023-06-29T03:07:11.108Z,78.80
2023-06-29T03:08:11.082Z,78.64
2023-06-29T03:09:11.083Z,78.59
2023-06-29T03:10:11.082Z,78.58
2023-06-29T03:11:11.087Z,78.56
2023-06-29T03:12:11.100Z,78.61
2023-06-29T03:13:11.079Z,78.56
2023-06-29T03:14:11.083Z,78.53
2023-06-29T03:15:11.098Z,78.41
2023-06-29T03:16:11.399Z,78.40
2023-06-29T03:17:11.117Z,78.43
2023-06-29T03:18:11.099Z,78.47
2023-06-29T03:19:11.099Z,78.46
2023-06-29T03:20:11.116Z,78.55
2023-06-29T03:21:18.034Z,78.33
2023-06-29T03:22:13.080Z,78.38
2023-06-29T03:23:11.101Z,78.53
2023-06-29T03:24:11.094Z,78.33
2023-06-29T03:25:12.087Z,78.30
2023-06-29T03:26:11.092Z,78.38
2023-06-29T03:27:11.086Z,78.33
2023-06-29T03:28:11.101Z,78.32
2023-06-29T03:29:11.099Z,78.40
2023-06-29T03:30:11.089Z,78.50
2023-06-29T03:31:11.117Z,78.52
2023-06-29T03:32:11.091Z,78.68
2023-06-29T03:33:11.096Z,78.67
2023-06-29T03:34:11.094Z,78.67
2023-06-29T03:35:12.088Z,78.87
2023-06-29T03:36:11.097Z,78.92
2023-06-29T03:37:11.095Z,79.00
2023-06-29T03:38:13.090Z,78.94
2023-06-29T03:39:11.091Z,78.93
2023-06-29T03:40:11.101Z,78.72
2023-06-29T03:41:11.099Z,79.05
2023-06-29T03:42:11.111Z,79.10
2023-06-29T03:43:11.101Z,79.08
2023-06-29T03:44:11.086Z,79.21
2023-06-29T03:45:11.102Z,79.15
2023-06-29T03:46:11.146Z,79.30
2023-06-29T03:47:11.089Z,79.32
2023-06-29T03:48:11.163Z,79.30
2023-06-29T03:49:11.128Z,79.32
2023-06-29T03:50:11.099Z,79.17
2023-06-29T03:51:11.110Z,79.59
2023-06-29T03:52:11.098Z,79.28
2023-06-29T03:53:11.129Z,79.35
2023-06-29T03:54:11.115Z,79.31
2023-06-29T03:55:11.113Z,79.54
2023-06-29T03:56:11.110Z,79.54
2023-06-29T03:57:11.104Z,79.52
2023-06-29T03:58:11.100Z,79.58
2023-06-29T03:59:11.090Z,79.51
2023-06-29T04:00:11.090Z,79.46
2023-06-29T04:01:11.069Z,79.46
2023-06-29T04:02:12.608Z,79.26
2023-06-29T04:03:11.136Z,79.59
2023-06-29T04:04:11.075Z,79.54
2023-06-29T04:05:11.061Z,79.45
2023-06-29T04:06:11.063Z,79.33
2023-06-29T04:07:11.076Z,79.25
2023-06-29T04:08:11.062Z,79.30
2023-06-29T04:09:11.072Z,79.15
2023-06-29T04:10:11.073Z,79.22
2023-06-29T04:11:12.621Z,79.29
2023-06-29T04:12:11.075Z,79.29
2023-06-29T04:13:11.068Z,79.31
2023-06-29T04:14:11.066Z,79.35
2023-06-29T04:15:11.064Z,79.34
2023-06-29T04:16:11.100Z,79.46
2023-06-29T04:17:11.063Z,79.46
2023-06-29T04:18:11.090Z,79.35
2023-06-29T04:19:11.085Z,79.26
2023-06-29T04:20:11.079Z,79.34
2023-06-29T04:21:11.069Z,79.36
2023-06-29T04:22:11.077Z,79.28
2023-06-29T04:23:11.066Z,79.32
2023-06-29T04:24:11.070Z,79.46
2023-06-29T04:25:11.083Z,79.42
2023-06-29T04:26:11.069Z,79.29
2023-06-29T04:27:11.072Z,79.22
2023-06-29T04:28:11.069Z,79.29
2023-06-29T04:29:11.068Z,79.30
2023-06-29T04:30:11.098Z,79.34
2023-06-29T04:31:11.127Z,79.32
2023-06-29T04:32:11.068Z,79.58
2023-06-29T04:33:14.071Z,79.95
2023-06-29T04:34:11.078Z,79.89
2023-06-29T04:35:11.078Z,79.85
2023-06-29T04:36:11.070Z,79.73
2023-06-29T04:37:11.115Z,79.92
2023-06-29T04:38:11.070Z,79.91
2023-06-29T04:39:11.067Z,79.91
2023-06-29T04:40:13.070Z,79.92
2023-06-29T04:41:11.070Z,79.75
2023-06-29T04:42:15.072Z,79.62
2023-06-29T04:43:11.071Z,79.54
2023-06-29T04:44:11.069Z,79.55
2023-06-29T04:45:13.064Z,79.61
2023-06-29T04:46:11.093Z,79.57
2023-06-29T04:47:11.080Z,79.43
2023-06-29T04:48:11.097Z,79.39
2023-06-29T04:49:11.123Z,79.48
2023-06-29T04:50:11.074Z,79.41
2023-06-29T04:51:11.104Z,79.27
2023-06-29T04:52:11.094Z,79.47
2023-06-29T04:53:15.076Z,79.42
2023-06-29T04:54:12.074Z,79.33
2023-06-29T04:55:11.090Z,79.33
2023-06-29T04:56:11.090Z,79.19
2023-06-29T04:57:11.075Z,79.27
2023-06-29T04:58:11.076Z,79.41
2023-06-29T04:59:11.071Z,79.31
2023-06-29T05:00:12.128Z,79.27
2023-06-29T05:01:11.129Z,79.21
2023-06-29T05:02:11.085Z,79.03
2023-06-29T05:03:11.143Z,79.16
2023-06-29T05:04:11.074Z,79.22
2023-06-29T05:05:11.090Z,79.27
2023-06-29T05:06:11.079Z,79.14
2023-06-29T05:07:11.096Z,79.22
2023-06-29T05:08:11.085Z,79.30
2023-06-29T05:09:11.075Z,79.40
2023-06-29T05:10:11.072Z,79.33
2023-06-29T05:11:11.076Z,79.29
2023-06-29T05:12:11.078Z,79.28
2023-06-29T05:13:11.074Z,79.38
2023-06-29T05:14:11.087Z,79.35
2023-06-29T05:15:11.075Z,79.33
2023-06-29T05:16:11.076Z,79.32
2023-06-29T05:17:11.106Z,79.35
2023-06-29T05:18:11.167Z,79.39
2023-06-29T05:19:11.075Z,79.46
2023-06-29T05:20:11.082Z,79.54
2023-06-29T05:21:11.087Z,79.56
2023-06-29T05:22:11.083Z,79.59
2023-06-29T05:23:11.081Z,79.47
2023-06-29T05:24:11.080Z,79.67
2023-06-29T05:25:11.100Z,79.70
2023-06-29T05:26:11.093Z,79.56
2023-06-29T05:27:11.101Z,79.71
2023-06-29T05:28:11.080Z,79.63
2023-06-29T05:29:11.080Z,79.66
2023-06-29T05:30:11.081Z,79.64
2023-06-29T05:31:11.110Z,79.63
2023-06-29T05:32:11.091Z,79.72
2023-06-29T05:33:11.106Z,79.82
2023-06-29T05:34:11.103Z,79.75
2023-06-29T05:35:11.102Z,79.67
2023-06-29T05:36:11.081Z,79.72
2023-06-29T05:37:11.082Z,79.64
2023-06-29T05:38:11.092Z,79.49
2023-06-29T05:39:11.078Z,79.51
2023-06-29T05:40:11.172Z,79.47
2023-06-29T05:41:11.088Z,79.41
2023-06-29T05:42:11.081Z,79.43
2023-06-29T05:43:11.088Z,79.45
2023-06-29T05:44:11.084Z,79.44
2023-06-29T05:45:11.100Z,79.27
2023-06-29T05:46:11.089Z,79.34
2023-06-29T05:47:11.078Z,79.41
2023-06-29T05:48:11.081Z,79.39
2023-06-29T05:49:11.076Z,79.43
2023-06-29T05:50:11.074Z,79.50
2023-06-29T05:51:11.077Z,79.44
2023-06-29T05:52:11.074Z,79.33
2023-06-29T05:53:11.081Z,79.18
2023-06-29T05:54:11.082Z,78.93
2023-06-29T05:55:11.075Z,78.97
2023-06-29T05:56:11.081Z,78.91
2023-06-29T05:57:11.089Z,78.81
2023-06-29T05:58:11.081Z,78.70
2023-06-29T05:59:11.084Z,78.57
2023-06-29T06:00:13.090Z,78.49
2023-06-29T06:01:11.113Z,78.51
2023-06-29T06:02:11.087Z,78.49
2023-06-29T06:03:11.150Z,78.34
2023-06-29T06:04:11.082Z,78.57
2023-06-29T06:05:12.089Z,78.38
2023-06-29T06:06:11.095Z,78.25
2023-06-29T06:07:11.120Z,78.18
2023-06-29T06:08:11.711Z,78.13
2023-06-29T06:09:11.087Z,78.17
2023-06-29T06:10:11.081Z,78.01
2023-06-29T06:11:11.087Z,77.89
2023-06-29T06:12:11.089Z,78.06
2023-06-29T06:13:11.083Z,77.88
2023-06-29T06:14:11.088Z,77.83
2023-06-29T06:15:11.089Z,77.73
2023-06-29T06:16:11.138Z,77.51
2023-06-29T06:17:11.088Z,77.66
2023-06-29T06:18:11.186Z,77.52
2023-06-29T06:19:11.086Z,77.48
2023-06-29T06:20:11.095Z,77.50
2023-06-29T06:21:11.089Z,77.38
2023-06-29T06:22:11.085Z,77.44
2023-06-29T06:23:11.100Z,77.37
2023-06-29T06:24:11.085Z,77.33
2023-06-29T06:25:11.100Z,77.19
2023-06-29T06:26:11.095Z,77.07
2023-06-29T06:27:11.084Z,76.99
2023-06-29T06:28:11.141Z,76.94
2023-06-29T06:29:11.095Z,76.82
2023-06-29T06:30:11.085Z,76.70
2023-06-29T06:31:24.167Z,76.61
2023-06-29T06:32:13.173Z,76.56
2023-06-29T06:33:11.090Z,76.56
2023-06-29T06:34:11.106Z,76.46
2023-06-29T06:35:11.137Z,76.51
2023-06-29T06:36:11.122Z,76.48
2023-06-29T06:37:11.085Z,76.48
2023-06-29T06:38:11.088Z,76.58
2023-06-29T06:39:11.093Z,76.29
2023-06-29T06:40:13.130Z,76.11
2023-06-29T06:41:11.091Z,76.12
2023-06-29T06:42:11.094Z,76.00
2023-06-29T06:43:11.087Z,75.88
2023-06-29T06:44:11.093Z,75.64
2023-06-29T06:45:11.105Z,75.62
2023-06-29T06:46:11.127Z,75.54
2023-06-29T06:47:11.097Z,75.42
2023-06-29T06:48:12.118Z,75.35
2023-06-29T06:49:11.088Z,75.26
2023-06-29T06:50:11.087Z,75.12
2023-06-29T06:51:11.091Z,75.30
2023-06-29T06:52:11.088Z,75.15
2023-06-29T06:53:11.090Z,75.00
2023-06-29T06:54:11.098Z,75.00
2023-06-29T06:55:11.083Z,74.88
2023-06-29T06:56:11.095Z,74.26
2023-06-29T06:57:11.090Z,74.40
2023-06-29T06:58:11.082Z,74.19
2023-06-29T06:59:11.093Z,74.17
2023-06-29T07:00:11.828Z,73.81
2023-06-29T07:01:11.076Z,73.87
2023-06-29T07:02:11.088Z,73.79
2023-06-29T07:03:11.136Z,73.68
2023-06-29T07:04:11.055Z,73.12
2023-06-29T07:05:11.067Z,72.55
2023-06-29T07:06:11.063Z,72.34
2023-06-29T07:07:11.098Z,72.37
2023-06-29T07:08:11.064Z,72.11
2023-06-29T07:09:13.678Z,71.90
2023-06-29T07:10:11.068Z,71.66
2023-06-29T07:11:11.063Z,71.37
2023-06-29T07:12:11.080Z,71.12
2023-06-29T07:13:11.059Z,70.87
2023-06-29T07:14:11.065Z,70.61
2023-06-29T07:15:11.058Z,70.47
2023-06-29T07:16:11.068Z,70.53
2023-06-29T07:17:11.117Z,70.30
2023-06-29T07:18:11.064Z,70.14
2023-06-29T07:24:11.069Z,70.16
2023-06-29T07:25:11.061Z,70.15
2023-06-29T07:26:11.065Z,70.05
2023-06-29T07:27:11.066Z,69.90
2023-06-29T07:28:11.076Z,70.02
2023-06-29T07:29:11.071Z,69.91
2023-06-29T07:30:11.072Z,69.80
2023-06-29T07:31:11.155Z,69.79
2023-06-29T07:32:11.071Z,69.73
2023-06-29T07:33:11.120Z,69.60
2023-06-29T07:34:11.065Z,69.69
2023-06-29T07:35:11.081Z,69.70
2023-06-29T07:36:11.073Z,69.75
2023-06-29T07:37:11.069Z,69.70
2023-06-29T07:38:11.127Z,69.95
2023-06-29T07:39:11.073Z,69.95
2023-06-29T07:40:11.066Z,69.85
2023-06-29T07:41:11.075Z,70.09
2023-06-29T07:42:11.087Z,69.82
2023-06-29T07:43:11.067Z,69.63
2023-06-29T07:44:11.074Z,69.63
2023-06-29T07:45:11.106Z,69.61
2023-06-29T07:46:11.245Z,69.60
2023-06-29T07:47:11.090Z,69.45
2023-06-29T07:48:11.178Z,69.22
2023-06-29T07:49:11.076Z,69.18
2023-06-29T07:50:11.073Z,68.86
2023-06-29T07:51:11.087Z,68.63
2023-06-29T07:52:11.071Z,68.38
2023-06-29T07:53:11.078Z,68.41
2023-06-29T07:54:11.076Z,68.43
2023-06-29T07:55:11.069Z,68.26
2023-06-29T07:56:11.068Z,68.17
2023-06-29T07:59:11.078Z,67.93
2023-06-29T08:00:11.092Z,68.10
2023-06-29T08:01:11.138Z,67.74
2023-06-29T08:02:11.241Z,67.75
2023-06-29T08:03:11.100Z,67.72
2023-06-29T08:04:11.292Z,67.63
2023-06-29T08:07:11.493Z,67.33
2023-06-29T08:08:11.232Z,67.29
2023-06-29T08:09:11.086Z,66.94
2023-06-29T08:10:11.140Z,66.97
2023-06-29T08:11:13.071Z,66.95
2023-06-29T08:12:11.075Z,66.22
2023-06-29T08:13:11.090Z,65.94
2023-06-29T08:14:11.087Z,65.70
2023-06-29T08:15:11.074Z,65.72
2023-06-29T08:16:11.140Z,65.80
2023-06-29T08:17:11.081Z,65.49
2023-06-29T08:18:11.143Z,64.93
2023-06-29T08:19:11.134Z,65.02
2023-06-29T08:20:11.073Z,64.47
2023-06-29T08:21:11.077Z,64.44
2023-06-29T08:22:11.077Z,64.15
2023-06-29T08:23:11.074Z,64.05
2023-06-29T08:24:11.077Z,63.74
2023-06-29T08:25:11.084Z,63.03
2023-06-29T08:26:11.088Z,62.64
2023-06-29T08:27:11.078Z,62.66
2023-06-29T08:28:11.099Z,62.14
2023-06-29T08:29:11.074Z,61.99
2023-06-29T08:30:11.087Z,61.87
2023-06-29T08:31:11.134Z,61.88
2023-06-29T08:32:13.149Z,61.76
2023-06-29T08:33:11.190Z,61.68
2023-06-29T08:34:11.148Z,61.64
2023-06-29T08:35:11.082Z,61.15
2023-06-29T08:36:11.086Z,60.61
2023-06-29T08:37:11.087Z,60.56
2023-06-29T08:38:11.090Z,60.43
2023-06-29T08:39:11.081Z,60.40
2023-06-29T08:40:11.092Z,60.14
2023-06-29T08:41:11.118Z,59.71
2023-06-29T08:42:11.086Z,59.32
2023-06-29T08:43:11.088Z,59.33
2023-06-29T08:44:11.078Z,59.09
2023-06-29T08:45:11.081Z,59.20
2023-06-29T08:46:11.179Z,58.64
2023-06-29T08:47:11.081Z,57.92
2023-06-29T08:48:11.146Z,58.02
2023-06-29T08:49:11.098Z,57.85
2023-06-29T08:50:11.081Z,57.91
2023-06-29T08:51:11.083Z,57.72
2023-06-29T08:52:16.084Z,57.24
2023-06-29T08:53:11.113Z,57.30
2023-06-29T08:54:11.102Z,57.28
2023-06-29T08:55:11.100Z,57.25
2023-06-29T08:56:11.080Z,57.13
2023-06-29T08:57:11.078Z,56.72
2023-06-29T08:58:11.087Z,55.38
2023-06-29T08:59:11.083Z,55.22
2023-06-29T09:00:11.079Z,54.95
2023-06-29T09:01:11.169Z,54.64
2023-06-29T09:02:11.119Z,54.70
2023-06-29T09:03:11.204Z,54.48
2023-06-29T09:04:11.174Z,54.59
2023-06-29T09:05:12.081Z,54.17
2023-06-29T09:06:11.079Z,54.12
2023-06-29T09:07:11.165Z,53.80
2023-06-29T09:08:11.116Z,53.65
2023-06-29T09:09:11.077Z,53.25
2023-06-29T09:10:13.132Z,52.94
2023-06-29T09:11:11.093Z,52.47
2023-06-29T09:12:11.084Z,52.41
2023-06-29T09:13:11.084Z,52.08
2023-06-29T09:14:11.082Z,52.10
2023-06-29T09:15:11.090Z,51.87
2023-06-29T09:16:11.112Z,51.94
2023-06-29T09:17:17.084Z,51.51
2023-06-29T09:18:11.131Z,51.14
2023-06-29T09:19:11.084Z,50.77
2023-06-29T09:20:15.090Z,50.91
2023-06-29T09:21:11.096Z,51.14
2023-06-29T09:22:11.090Z,50.59
2023-06-29T09:23:13.086Z,50.49
2023-06-29T09:24:12.083Z,50.73
2023-06-29T09:25:19.680Z,50.60
2023-06-29T09:26:13.197Z,51.06
2023-06-29T09:27:12.092Z,51.11
2023-06-29T09:28:11.090Z,50.88
2023-06-29T09:29:11.100Z,51.11
2023-06-29T09:30:15.088Z,51.19
2023-06-29T09:31:11.101Z,51.21
2023-06-29T09:32:15.094Z,51.57
2023-06-29T09:33:13.111Z,51.50
2023-06-29T09:34:19.098Z,51.09
2023-06-29T09:35:11.094Z,51.42
2023-06-29T09:36:11.109Z,50.95
2023-06-29T09:37:12.091Z,50.87
2023-06-29T09:38:11.095Z,50.97
2023-06-29T09:39:11.097Z,50.85
2023-06-29T09:40:16.095Z,50.93
2023-06-29T09:41:13.509Z,51.10
2023-06-29T09:42:11.113Z,50.90
2023-06-29T09:43:17.103Z,51.07
2023-06-29T09:44:11.093Z,51.53
2023-06-29T09:45:12.098Z,51.80
2023-06-29T09:46:11.136Z,52.09
2023-06-29T09:49:11.302Z,52.01
2023-06-29T09:50:17.219Z,51.60
2023-06-29T09:51:11.344Z,51.36
2023-06-29T09:52:11.126Z,51.17
2023-06-29T09:53:11.225Z,50.63
2023-06-29T09:54:16.094Z,50.29
2023-06-29T09:55:11.123Z,49.93
2023-06-29T09:56:11.107Z,49.50
2023-06-29T09:57:11.100Z,48.70
2023-06-29T09:58:11.098Z,48.90
2023-06-29T09:59:11.115Z,49.34
2023-06-29T10:00:14.096Z,48.20
2023-06-29T10:01:11.168Z,47.66
2023-06-29T10:02:11.094Z,47.50
2023-06-29T10:03:11.127Z,47.55
2023-06-29T10:04:11.096Z,47.18
2023-06-29T10:05:13.067Z,46.84
2023-06-29T10:06:13.075Z,46.73
2023-06-29T10:07:15.101Z,46.72
2023-06-29T10:08:13.072Z,46.76
2023-06-29T10:09:11.066Z,46.90
2023-06-29T10:10:11.067Z,47.23
2023-06-29T10:11:11.064Z,47.24
2023-06-29T10:12:12.066Z,47.35
2023-06-29T10:13:11.063Z,46.67
2023-06-29T10:14:11.072Z,46.78
2023-06-29T10:15:13.070Z,46.29
2023-06-29T10:16:11.067Z,46.07
2023-06-29T10:17:18.123Z,45.76
2023-06-29T10:18:17.130Z,45.91
2023-06-29T10:19:19.066Z,46.06
2023-06-29T10:20:12.097Z,46.19
2023-06-29T10:21:11.068Z,45.79
2023-06-29T10:22:12.072Z,45.87
2023-06-29T10:23:11.064Z,45.11
2023-06-29T10:24:12.068Z,44.90
2023-06-29T10:25:14.084Z,44.79
2023-06-29T10:26:11.068Z,44.80
2023-06-29T10:27:11.074Z,44.88
2023-06-29T10:28:11.088Z,45.02
2023-06-29T10:29:11.084Z,44.84
2023-06-29T10:30:11.069Z,44.46
2023-06-29T10:31:11.083Z,44.34
2023-06-29T10:32:11.068Z,44.40
2023-06-29T10:33:12.158Z,44.68
2023-06-29T10:34:11.074Z,44.52
2023-06-29T10:35:16.085Z,44.32
2023-06-29T10:36:14.189Z,44.32
2023-06-29T10:37:11.081Z,44.39
2023-06-29T10:38:13.078Z,44.50
2023-06-29T10:39:19.075Z,44.34
2023-06-29T10:40:15.070Z,44.55
2023-06-29T10:41:15.880Z,45.02
2023-06-29T10:42:13.073Z,45.21
2023-06-29T10:43:11.076Z,45.49
2023-06-29T10:44:11.080Z,45.79
2023-06-29T10:45:21.080Z,46.04
2023-06-29T10:46:14.111Z,46.02
2023-06-29T10:47:19.076Z,46.36
2023-06-29T10:48:18.146Z,46.09
2023-06-29T10:49:17.092Z,46.38
2023-06-29T10:50:17.095Z,46.54
2023-06-29T10:51:12.073Z,46.76
2023-06-29T10:52:11.103Z,46.76
2023-06-29T10:53:14.084Z,46.96
2023-06-29T10:54:11.162Z,46.83
2023-06-29T10:55:18.076Z,46.98
2023-06-29T10:56:19.076Z,47.12
2023-06-29T10:57:11.075Z,47.14
2023-06-29T10:58:15.099Z,47.14
2023-06-29T10:59:13.100Z,47.28
2023-06-29T11:00:11.586Z,46.63
2023-06-29T11:01:11.095Z,46.69
2023-06-29T11:02:11.180Z,46.74
2023-06-29T11:03:12.359Z,46.55
2023-06-29T11:04:11.207Z,46.32
2023-06-29T11:05:15.075Z,46.49
2023-06-29T11:06:14.421Z,46.75
2023-06-29T11:07:13.126Z,46.71
2023-06-29T11:08:11.095Z,46.79
2023-06-29T11:09:13.103Z,46.73
2023-06-29T11:10:11.073Z,46.81
2023-06-29T11:11:15.078Z,46.34
2023-06-29T11:12:13.094Z,46.64
2023-06-29T11:13:11.076Z,46.01
2023-06-29T11:14:12.082Z,45.76
2023-06-29T11:15:20.540Z,45.44
2023-06-29T11:16:14.194Z,45.70
2023-06-29T11:17:11.088Z,45.22
2023-06-29T11:18:11.115Z,44.61
2023-06-29T11:19:13.463Z,44.39
2023-06-29T11:20:16.076Z,43.93
2023-06-29T11:21:14.080Z,43.85
2023-06-29T11:22:11.077Z,43.76
2023-06-29T11:23:12.077Z,42.73
2023-06-29T11:24:11.274Z,42.79
2023-06-29T11:25:11.090Z,43.04
2023-06-29T11:26:11.083Z,43.07
2023-06-29T11:27:11.079Z,42.20
2023-06-29T11:28:11.081Z,42.45
2023-06-29T11:29:11.094Z,42.32
2023-06-29T11:30:12.078Z,42.13
2023-06-29T11:31:11.132Z,42.30
2023-06-29T11:32:14.192Z,42.55
2023-06-29T11:33:24.371Z,42.41
2023-06-29T11:34:16.046Z,42.29
2023-06-29T11:35:11.080Z,42.38
2023-06-29T11:36:11.155Z,42.84
2023-06-29T11:37:15.971Z,43.05
2023-06-29T11:38:13.057Z,43.37
2023-06-29T11:39:11.126Z,43.55
2023-06-29T11:40:19.093Z,43.44
2023-06-29T11:41:11.219Z,43.21
2023-06-29T11:42:11.193Z,43.33
2023-06-29T11:43:11.081Z,42.90
2023-06-29T11:44:12.554Z,43.83
2023-06-29T11:45:11.088Z,43.82
2023-06-29T11:46:11.173Z,44.22
2023-06-29T11:48:11.138Z,43.91
2023-06-29T11:49:11.093Z,43.87
2023-06-29T11:50:12.090Z,43.39
2023-06-29T11:51:11.098Z,43.11
2023-06-29T11:52:11.085Z,42.62
2023-06-29T11:53:11.090Z,42.29
2023-06-29T11:54:11.094Z,42.24
2023-06-29T11:55:11.083Z,42.37
2023-06-29T11:56:19.097Z,41.71
2023-06-29T11:57:11.093Z,41.06
2023-06-29T11:58:13.087Z,40.25
2023-06-29T11:59:14.093Z,40.36
2023-06-29T12:00:23.104Z,39.81
2023-06-29T12:01:17.084Z,39.75
2023-06-29T12:02:11.087Z,39.37
2023-06-29T12:03:11.323Z,39.57
2023-06-29T12:04:11.147Z,39.34
2023-06-29T12:05:11.213Z,39.22
2023-06-29T12:06:11.093Z,39.06
2023-06-29T12:07:11.178Z,39.18
2023-06-29T12:08:11.379Z,39.25
2023-06-29T12:09:13.197Z,39.53
2023-06-29T12:10:17.097Z,39.79
2023-06-29T12:11:17.121Z,40.03
2023-06-29T12:12:11.093Z,39.82
2023-06-29T12:13:12.099Z,40.29
2023-06-29T12:14:13.096Z,39.88
2023-06-29T12:15:16.502Z,39.94
2023-06-29T12:18:15.979Z,40.03
2023-06-29T12:19:15.352Z,39.87
2023-06-29T12:20:15.351Z,40.24
2023-06-29T12:21:11.297Z,40.55
2023-06-29T12:22:15.278Z,40.59
2023-06-29T12:23:12.091Z,40.45
2023-06-29T12:24:11.100Z,40.29
2023-06-29T12:25:13.092Z,40.04
2023-06-29T12:26:11.100Z,40.16
2023-06-29T12:27:11.092Z,40.25
2023-06-29T12:28:11.108Z,40.64
2023-06-29T12:29:11.099Z,40.84
2023-06-29T12:30:12.249Z,40.83
2023-06-29T12:31:11.133Z,40.82
2023-06-29T12:32:11.095Z,40.90
2023-06-29T12:33:11.095Z,40.97
2023-06-29T12:34:11.112Z,41.16
2023-06-29T12:35:12.700Z,40.99
2023-06-29T12:36:11.098Z,41.14
2023-06-29T12:37:11.098Z,40.71
2023-06-29T12:38:11.092Z,40.73
2023-06-29T12:39:11.095Z,40.61
2023-06-29T12:40:11.143Z,40.42
2023-06-29T12:41:11.094Z,40.47
2023-06-29T12:42:11.100Z,40.62
2023-06-29T12:43:11.100Z,40.43
2023-06-29T12:44:11.094Z,40.66
2023-06-29T12:45:11.101Z,40.91
2023-06-29T12:46:11.094Z,40.68
2023-06-29T12:47:11.141Z,40.64
2023-06-29T12:48:11.116Z,40.79
2023-06-29T12:49:11.099Z,40.64
2023-06-29T12:50:11.156Z,40.53
2023-06-29T12:51:11.095Z,40.32
2023-06-29T12:52:11.092Z,40.54
2023-06-29T12:53:11.109Z,40.19
2023-06-29T12:54:11.095Z,39.97
2023-06-29T12:55:11.094Z,39.78
2023-06-29T12:56:11.105Z,39.59
2023-06-29T12:57:11.102Z,39.63
2023-06-29T12:58:11.095Z,39.32
2023-06-29T12:59:11.107Z,39.95
2023-06-29T13:00:11.130Z,39.67
2023-06-29T13:01:11.108Z,39.49
2023-06-29T13:02:11.148Z,39.28
2023-06-29T13:03:15.202Z,39.20
2023-06-29T13:04:11.208Z,38.86
2023-06-29T13:05:11.058Z,38.77
2023-06-29T13:06:11.064Z,38.72